Time;durP1;ratioP1;P1;durP2;ratioP2;P2;SDS_P1;SDS_P2;PMS_P1;PMS_P2;Temp;Humidity;BMP_temperature;BMP_pressure;BME280_temperature;BME280_humidity;BME280_pressure;Samples;Min_cycle;Max_cycle;Signal;HPM_P1;HPM_P2
2021/10/15 00:00:51;;;;;;;;;;;1.90;99.90;;;;;;5075116;28;20429;-84
2021/10/15 00:03:16;;;;;;;;;;;1.80;99.90;;;;;;5072898;28;19908;-84
2021/10/15 00:05:41;;;;;;;;;;;1.80;99.90;;;;;;5072223;28;20287;-84
2021/10/15 00:08:07;;;;;;;;;;;1.80;99.90;;;;;;5073592;28;19935;-84
2021/10/15 00:10:32;;;;;;;;;;;1.80;99.90;;;;;;5074307;28;20417;-84
2021/10/15 00:12:58;;;;;;;;;;;2.00;99.90;;;;;;5073400;28;19962;-84
2021/10/15 00:15:23;;;;;;;;;;;2.10;99.90;;;;;;5072718;28;19927;-84
2021/10/15 00:17:49;;;;;;;;;;;2.30;99.90;;;;;;5074076;28;20331;-84
2021/10/15 00:20:14;;;;;;;;;;;2.20;99.90;;;;;;5073480;28;20372;-84
2021/10/15 00:22:40;;;;;;;;;;;1.90;99.90;;;;;;5072458;28;19951;-83
2021/10/15 00:25:06;;;;;;;;;;;2.00;99.90;;;;;;5073326;28;20284;-83
2021/10/15 00:27:31;;;;;;;;;;;2.20;99.90;;;;;;5073204;28;19915;-84
2021/10/15 00:29:57;;;;;;;;;;;2.50;99.90;;;;;;5073866;28;19909;-84
2021/10/15 00:32:23;;;;;;;;;;;2.70;99.90;;;;;;5072507;28;19908;-84
2021/10/15 00:34:49;;;;;;;;;;;2.90;99.90;;;;;;5073152;28;19916;-83
2021/10/15 00:37:18;;;;;;;;;;;2.80;99.90;;;;;;5072613;28;19912;-83
2021/10/15 00:39:44;;;;;;;;;;;2.80;99.90;;;;;;5072950;28;19960;-84
2021/10/15 00:42:10;;;;;;;;;;;2.80;99.90;;;;;;5071628;28;20001;-85
2021/10/15 00:44:36;;;;;;;;;;;2.80;99.90;;;;;;5073502;28;20245;-84
2021/10/15 00:47:01;;;;;;;;;;;2.80;99.90;;;;;;5072022;28;19908;-84
2021/10/15 00:49:27;;;;;;;;;;;2.90;99.90;;;;;;5072320;28;19916;-84
2021/10/15 00:51:52;;;;;;;;;;;2.80;99.90;;;;;;5071759;28;20380;-84
2021/10/15 00:54:18;;;;;;;;;;;2.90;99.90;;;;;;5072212;28;19999;-84
2021/10/15 00:56:44;;;;;;;;;;;3.00;99.90;;;;;;5073661;28;20489;-85
2021/10/15 00:59:10;;;;;;;;;;;2.90;99.90;;;;;;5071599;28;19978;-84
2021/10/15 01:01:35;;;;;;;;;;;2.90;99.90;;;;;;5071114;28;20333;-84
2021/10/15 01:04:01;;;;;;;;;;;3.00;99.90;;;;;;5071814;28;19963;-85
2021/10/15 01:06:28;;;;;;;;;;;3.10;99.90;;;;;;5071416;28;20007;-85
2021/10/15 01:08:53;;;;;;;;;;;3.00;99.90;;;;;;5071579;28;19908;-84
2021/10/15 01:11:19;;;;;;;;;;;3.00;99.90;;;;;;5071499;28;20460;-84
2021/10/15 01:13:45;;;;;;;;;;;3.00;99.90;;;;;;5071211;28;19915;-85
2021/10/15 01:16:12;;;;;;;;;;;2.90;99.90;;;;;;5071872;28;19908;-84
2021/10/15 01:18:38;;;;;;;;;;;3.00;99.90;;;;;;5072446;28;19908;-84
2021/10/15 01:21:04;;;;;;;;;;;3.10;99.90;;;;;;5071955;28;19908;-85
2021/10/15 01:23:30;;;;;;;;;;;3.10;99.90;;;;;;5070766;28;19916;-84
2021/10/15 01:25:56;;;;;;;;;;;3.30;99.90;;;;;;5055329;28;19916;-85
2021/10/15 01:28:22;;;;;;;;;;;3.30;99.90;;;;;;5071573;28;20322;-84
2021/10/15 01:30:48;;;;;;;;;;;3.40;99.90;;;;;;5071937;28;19944;-84
2021/10/15 01:33:14;;;;;;;;;;;3.30;99.90;;;;;;5071645;28;19948;-84
2021/10/15 01:35:40;;;;;;;;;;;3.30;99.90;;;;;;5071908;28;19948;-84
2021/10/15 01:38:05;;;;;;;;;;;3.30;99.90;;;;;;5071711;28;20387;-84
2021/10/15 01:40:30;;;;;;;;;;;3.30;99.90;;;;;;5071648;28;19931;-85
2021/10/15 01:42:56;;;;;;;;;;;3.30;99.90;;;;;;5072941;28;19908;-84
2021/10/15 01:45:26;;;;;;;;;;;3.30;99.90;;;;;;5071456;28;19954;-84
2021/10/15 01:47:52;;;;;;;;;;;3.30;99.90;;;;;;5071434;28;20390;-84
2021/10/15 01:50:18;;;;;;;;;;;3.30;99.90;;;;;;5071644;28;19908;-84
2021/10/15 01:52:44;;;;;;;;;;;3.50;99.90;;;;;;5070989;28;19977;-86
2021/10/15 01:55:10;;;;;;;;;;;3.60;99.90;;;;;;5071795;28;20372;-84
2021/10/15 01:57:36;;;;;;;;;;;3.50;99.90;;;;;;5069882;28;20644;-85
2021/10/15 02:00:03;;;;;;;;;;;3.40;99.90;;;;;;5071377;28;19908;-84
2021/10/15 02:02:28;;;;;;;;;;;3.40;99.90;;;;;;5071285;28;19915;-85
2021/10/15 02:04:54;;;;;;;;;;;3.40;99.90;;;;;;5071359;28;19908;-86
2021/10/15 02:07:19;;;;;;;;;;;3.20;99.90;;;;;;5070506;28;19912;-85
2021/10/15 02:09:45;;;;;;;;;;;3.30;99.90;;;;;;5071311;28;19915;-85
2021/10/15 02:12:10;;;;;;;;;;;3.30;99.90;;;;;;5054703;28;19909;-85
2021/10/15 02:14:36;;;;;;;;;;;3.00;99.90;;;;;;5070881;28;19948;-85
2021/10/15 02:17:01;;;;;;;;;;;2.70;99.90;;;;;;5070918;28;19913;-85
2021/10/15 02:19:27;;;;;;;;;;;2.50;99.90;;;;;;5071408;28;19959;-84
2021/10/15 02:21:53;;;;;;;;;;;2.20;99.90;;;;;;5071173;28;19912;-85
2021/10/15 02:24:18;;;;;;;;;;;2.00;99.90;;;;;;5071128;28;19962;-85
2021/10/15 02:26:44;;;;;;;;;;;2.00;99.90;;;;;;5070285;28;20006;-85
2021/10/15 02:29:09;;;;;;;;;;;2.00;99.90;;;;;;5070611;28;19916;-85
2021/10/15 02:31:35;;;;;;;;;;;1.90;99.90;;;;;;5069726;28;19999;-85
2021/10/15 02:34:00;;;;;;;;;;;2.00;99.90;;;;;;5070534;28;19912;-85
2021/10/15 02:36:26;;;;;;;;;;;2.00;99.90;;;;;;5070041;28;20007;-85
2021/10/15 02:38:51;;;;;;;;;;;2.00;99.90;;;;;;5070792;28;20318;-85
2021/10/15 02:41:17;;;;;;;;;;;2.00;99.90;;;;;;5070697;28;19908;-85
2021/10/15 02:43:44;;;;;;;;;;;1.90;99.90;;;;;;5071711;28;19909;-85
2021/10/15 02:46:11;;;;;;;;;;;2.00;99.90;;;;;;5073097;28;19947;-85
2021/10/15 02:48:36;;;;;;;;;;;1.90;99.90;;;;;;5073903;28;19915;-84
2021/10/15 02:51:02;;;;;;;;;;;1.80;99.90;;;;;;5073687;28;19909;-85
2021/10/15 02:53:27;;;;;;;;;;;1.80;99.90;;;;;;5074846;28;20003;-85
2021/10/15 02:55:53;;;;;;;;;;;1.70;99.90;;;;;;5074874;28;19909;-84
2021/10/15 02:58:19;;;;;;;;;;;1.90;99.90;;;;;;5074498;28;19952;-84
2021/10/15 03:00:44;;;;;;;;;;;1.90;99.90;;;;;;5074810;28;19908;-84
2021/10/15 03:03:10;;;;;;;;;;;1.80;99.90;;;;;;5074825;28;19920;-86
2021/10/15 03:05:35;;;;;;;;;;;1.80;99.90;;;;;;5075178;28;19952;-84
2021/10/15 03:08:00;;;;;;;;;;;1.70;99.90;;;;;;5075478;28;19945;-85
2021/10/15 03:10:26;;;;;;;;;;;1.60;99.90;;;;;;5074791;28;20311;-84
2021/10/15 03:12:51;;;;;;;;;;;1.40;99.90;;;;;;5075592;28;19908;-85
2021/10/15 03:15:17;;;;;;;;;;;1.50;99.90;;;;;;5073689;28;19915;-84
2021/10/15 03:17:42;;;;;;;;;;;1.60;99.90;;;;;;5075556;28;19913;-85
2021/10/15 03:20:08;;;;;;;;;;;1.50;99.90;;;;;;5074670;28;20269;-86
2021/10/15 03:22:34;;;;;;;;;;;1.40;99.90;;;;;;5073662;28;19957;-84
2021/10/15 03:24:59;;;;;;;;;;;1.40;99.90;;;;;;5072620;28;20368;-84
2021/10/15 03:27:25;;;;;;;;;;;1.60;99.90;;;;;;5055888;28;19909;-85
2021/10/15 03:29:50;;;;;;;;;;;1.50;99.90;;;;;;5072288;28;20649;-84
2021/10/15 03:32:16;;;;;;;;;;;1.40;99.90;;;;;;5070908;28;19915;-85
2021/10/15 03:34:41;;;;;;;;;;;1.40;99.90;;;;;;5072273;28;19912;-84
2021/10/15 03:37:07;;;;;;;;;;;1.50;99.90;;;;;;5071901;28;19913;-84
2021/10/15 03:39:32;;;;;;;;;;;1.40;99.90;;;;;;5074244;28;19970;-85
2021/10/15 03:41:58;;;;;;;;;;;1.20;99.90;;;;;;5075535;28;20325;-85
2021/10/15 03:44:23;;;;;;;;;;;1.30;99.90;;;;;;5073913;28;20003;-85
2021/10/15 03:46:49;;;;;;;;;;;1.20;99.90;;;;;;5073807;28;20095;-85
2021/10/15 03:49:14;;;;;;;;;;;1.10;99.90;;;;;;5073970;28;19909;-85
2021/10/15 03:51:40;;;;;;;;;;;1.00;99.90;;;;;;5073256;28;20360;-85
2021/10/15 03:54:06;;;;;;;;;;;1.00;99.90;;;;;;5073625;28;19915;-85
2021/10/15 03:56:32;;;;;;;;;;;1.00;99.90;;;;;;5073800;28;19909;-85
2021/10/15 03:58:58;;;;;;;;;;;0.90;99.90;;;;;;5072028;28;20391;-84
2021/10/15 04:01:23;;;;;;;;;;;0.90;99.90;;;;;;5073632;28;19908;-85
2021/10/15 04:03:49;;;;;;;;;;;1.00;99.90;;;;;;5073212;28;20425;-85
2021/10/15 04:06:14;;;;;;;;;;;1.00;99.90;;;;;;5057001;28;20383;-85
2021/10/15 04:08:40;;;;;;;;;;;0.90;99.90;;;;;;5073950;28;19912;-85
2021/10/15 04:11:05;;;;;;;;;;;0.90;99.90;;;;;;5073548;28;20003;-85
2021/10/15 04:13:31;;;;;;;;;;;0.90;99.90;;;;;;5074543;28;19962;-84
2021/10/15 04:16:00;;;;;;;;;;;1.00;99.90;;;;;;5073456;28;20287;-85
2021/10/15 04:18:25;;;;;;;;;;;0.90;99.90;;;;;;5073399;28;19912;-84
2021/10/15 04:20:51;;;;;;;;;;;0.80;99.90;;;;;;5072773;28;20478;-85
2021/10/15 04:23:18;;;;;;;;;;;0.80;99.90;;;;;;5074306;28;19908;-85
2021/10/15 04:25:44;;;;;;;;;;;0.80;99.90;;;;;;5073349;28;19914;-85
2021/10/15 04:28:09;;;;;;;;;;;0.70;99.90;;;;;;5074380;28;19912;-85
2021/10/15 04:30:35;;;;;;;;;;;0.80;99.90;;;;;;5073151;28;19908;-84
2021/10/15 04:33:00;;;;;;;;;;;0.80;99.90;;;;;;5072420;28;20292;-85
2021/10/15 04:35:26;;;;;;;;;;;0.70;99.90;;;;;;5071767;28;19915;-85
2021/10/15 04:37:51;;;;;;;;;;;0.70;99.90;;;;;;5071742;28;19921;-84
2021/10/15 04:40:17;;;;;;;;;;;0.70;99.90;;;;;;5074322;28;19916;-85
2021/10/15 04:42:43;;;;;;;;;;;0.70;99.90;;;;;;5074026;28;19999;-84
2021/10/15 04:45:09;;;;;;;;;;;0.60;99.90;;;;;;5072550;28;19908;-84
2021/10/15 04:47:34;;;;;;;;;;;0.50;99.90;;;;;;5072670;28;19931;-84
2021/10/15 04:49:59;;;;;;;;;;;0.50;99.90;;;;;;5072240;28;20365;-84
2021/10/15 04:52:25;;;;;;;;;;;0.70;99.90;;;;;;5072947;28;19915;-85
2021/10/15 04:54:50;;;;;;;;;;;0.70;99.90;;;;;;5073044;28;20383;-85
2021/10/15 04:57:16;;;;;;;;;;;0.60;99.90;;;;;;5072482;28;19917;-85
2021/10/15 04:59:41;;;;;;;;;;;0.60;99.90;;;;;;5071659;28;20352;-85
2021/10/15 05:02:07;;;;;;;;;;;0.50;99.90;;;;;;5072541;28;19915;-85
2021/10/15 05:04:32;;;;;;;;;;;0.50;99.90;;;;;;5072463;28;19915;-85
2021/10/15 05:06:59;;;;;;;;;;;0.50;99.90;;;;;;5072453;28;19908;-85
2021/10/15 05:09:33;;;;;;;;;;;0.50;99.90;;;;;;5071819;28;19936;-84
2021/10/15 05:12:13;;;;;;;;;;;0.70;99.90;;;;;;5072626;28;19909;-86
2021/10/15 05:14:39;;;;;;;;;;;0.70;99.90;;;;;;5072544;28;19908;-86
2021/10/15 05:17:04;;;;;;;;;;;0.60;99.90;;;;;;5072506;28;19958;-86
2021/10/15 05:19:30;;;;;;;;;;;0.50;99.90;;;;;;5072394;28;19935;-86
2021/10/15 05:21:55;;;;;;;;;;;0.50;99.90;;;;;;5072425;28;19916;-86
2021/10/15 05:24:21;;;;;;;;;;;0.40;99.90;;;;;;5072066;28;19973;-86
2021/10/15 05:26:46;;;;;;;;;;;0.40;99.90;;;;;;5072410;28;19960;-86
2021/10/15 05:29:12;;;;;;;;;;;0.50;99.90;;;;;;5072321;28;19999;-86
2021/10/15 05:31:37;;;;;;;;;;;0.50;99.90;;;;;;5073614;28;19909;-86
2021/10/15 05:34:03;;;;;;;;;;;0.40;99.90;;;;;;5072078;28;19913;-86
2021/10/15 05:36:28;;;;;;;;;;;0.30;99.90;;;;;;5072055;28;19908;-86
2021/10/15 05:38:54;;;;;;;;;;;0.40;99.90;;;;;;5070755;28;19909;-87
2021/10/15 05:41:19;;;;;;;;;;;0.40;99.90;;;;;;5072525;28;19927;-87
2021/10/15 05:43:45;;;;;;;;;;;0.50;99.90;;;;;;5071002;28;20287;-86
2021/10/15 05:46:10;;;;;;;;;;;0.70;99.90;;;;;;5054577;28;19915;-86
2021/10/15 05:48:36;;;;;;;;;;;0.70;99.90;;;;;;5071392;28;20314;-86
2021/10/15 05:51:01;;;;;;;;;;;0.70;99.90;;;;;;5072116;28;19916;-86
2021/10/15 05:53:27;;;;;;;;;;;0.70;99.90;;;;;;5072794;28;20347;-85
2021/10/15 05:56:19;;;;;;;;;;;0.70;99.90;;;;;;5071080;28;19909;-85
2021/10/15 05:58:50;;;;;;;;;;;0.80;99.90;;;;;;5073133;28;20478;-85
2021/10/15 06:01:17;;;;;;;;;;;0.90;99.90;;;;;;5071761;28;19931;-86
2021/10/15 06:03:49;;;;;;;;;;;0.90;99.90;;;;;;5070950;28;20332;-85
2021/10/15 06:11:43;;;;;;;;;;;1.20;99.90;;;;;;5073349;28;20392;-86
2021/10/15 06:14:25;;;;;;;;;;;1.30;99.90;;;;;;5072680;28;19909;-86
2021/10/15 06:16:55;;;;;;;;;;;1.30;99.90;;;;;;5072572;28;19924;-86
2021/10/15 06:19:23;;;;;;;;;;;1.40;99.90;;;;;;5071402;28;19909;-86
2021/10/15 06:21:49;;;;;;;;;;;1.50;99.90;;;;;;5071436;28;19909;-86
2021/10/15 06:24:15;;;;;;;;;;;1.50;99.90;;;;;;5072334;28;19964;-85
2021/10/15 06:26:40;;;;;;;;;;;1.50;99.90;;;;;;5072305;28;19968;-86
2021/10/15 06:29:06;;;;;;;;;;;1.60;99.90;;;;;;5071386;28;20314;-86
2021/10/15 06:31:32;;;;;;;;;;;1.60;99.90;;;;;;5071069;28;19908;-86
2021/10/15 06:33:58;;;;;;;;;;;1.70;99.90;;;;;;5071744;28;19908;-86
2021/10/15 06:36:23;;;;;;;;;;;1.80;99.90;;;;;;5071152;28;20313;-85
2021/10/15 06:38:49;;;;;;;;;;;1.90;99.90;;;;;;5070396;28;19915;-86
2021/10/15 06:41:14;;;;;;;;;;;1.90;99.90;;;;;;5070396;28;19916;-87
2021/10/15 06:43:40;;;;;;;;;;;2.00;99.90;;;;;;5070555;28;19913;-87
2021/10/15 06:46:07;;;;;;;;;;;2.00;99.90;;;;;;5056705;28;19908;-84
2021/10/15 06:48:33;;;;;;;;;;;2.10;99.90;;;;;;5056671;28;19946;-83
2021/10/15 06:50:59;;;;;;;;;;;2.20;99.90;;;;;;5056221;28;19990;-82
2021/10/15 06:53:24;;;;;;;;;;;2.20;99.90;;;;;;5058233;28;20373;-84
2021/10/15 06:55:50;;;;;;;;;;;2.10;99.90;;;;;;5053207;28;20293;-83
2021/10/15 06:58:17;;;;;;;;;;;2.30;99.90;;;;;;5052298;28;19917;-82
2021/10/15 07:00:42;;;;;;;;;;;2.30;99.90;;;;;;5060811;28;19909;-84
2021/10/15 07:03:14;;;;;;;;;;;2.40;99.90;;;;;;5036582;28;19909;-83
2021/10/15 07:05:40;;;;;;;;;;;2.50;99.90;;;;;;5038150;28;19912;-84
2021/10/15 07:08:05;;;;;;;;;;;2.50;99.90;;;;;;5037239;28;19999;-82
2021/10/15 07:10:31;;;;;;;;;;;2.50;99.90;;;;;;5054383;28;20363;-83
2021/10/15 07:12:56;;;;;;;;;;;2.70;99.90;;;;;;5036425;28;19916;-82
2021/10/15 07:15:21;;;;;;;;;;;2.80;99.90;;;;;;5047720;28;19909;-82
2021/10/15 07:17:47;;;;;;;;;;;2.90;99.90;;;;;;5060951;28;19913;-83
2021/10/15 07:20:12;;;;;;;;;;;3.00;99.90;;;;;;5052212;28;20024;-83
2021/10/15 07:22:38;;;;;;;;;;;3.10;99.90;;;;;;5053923;28;20297;-82
2021/10/15 07:25:04;;;;;;;;;;;3.30;99.90;;;;;;5036276;28;19909;-83
2021/10/15 07:27:29;;;;;;;;;;;3.50;99.90;;;;;;5053568;28;19913;-82
2021/10/15 07:29:55;;;;;;;;;;;3.60;99.90;;;;;;5035990;28;19909;-83
2021/10/15 07:32:21;;;;;;;;;;;3.70;99.90;;;;;;5037435;28;20035;-82
2021/10/15 07:34:46;;;;;;;;;;;3.90;99.90;;;;;;5057823;28;19908;-84
2021/10/15 07:37:12;;;;;;;;;;;4.30;99.90;;;;;;5039903;28;19913;-85
2021/10/15 07:39:37;;;;;;;;;;;4.70;99.90;;;;;;5056809;28;19979;-83
2021/10/15 07:42:04;;;;;;;;;;;5.10;99.90;;;;;;5039441;28;19913;-84
2021/10/15 07:44:30;;;;;;;;;;;5.20;99.90;;;;;;5055724;28;19909;-84
2021/10/15 07:46:55;;;;;;;;;;;5.30;99.90;;;;;;5040026;28;19909;-84
2021/10/15 07:49:21;;;;;;;;;;;5.60;99.90;;;;;;5056519;28;19909;-84
2021/10/15 07:51:46;;;;;;;;;;;5.60;99.90;;;;;;5039491;28;19923;-84
2021/10/15 07:54:12;;;;;;;;;;;5.70;99.90;;;;;;5061659;28;19909;-85
2021/10/15 07:56:37;;;;;;;;;;;6.10;99.90;;;;;;5076849;28;19909;-84
2021/10/15 07:59:03;;;;;;;;;;;6.50;99.90;;;;;;5077327;28;19916;-82
2021/10/15 08:01:28;;;;;;;;;;;7.00;99.90;;;;;;5055458;28;19954;-84
2021/10/15 08:03:54;;;;;;;;;;;7.70;99.90;;;;;;5073848;28;19951;-83
2021/10/15 08:06:19;;;;;;;;;;;8.90;99.90;;;;;;5076221;28;19917;-83
2021/10/15 08:08:45;;;;;;;;;;;9.80;99.90;;;;;;5077266;28;19909;-83
2021/10/15 08:11:11;;;;;;;;;;;10.60;99.90;;;;;;5074774;28;19955;-83
2021/10/15 08:13:36;;;;;;;;;;;11.60;99.90;;;;;;5075986;28;19931;-82
2021/10/15 08:16:02;;;;;;;;;;;11.50;99.90;;;;;;5061553;28;19908;-84
2021/10/15 08:18:27;;;;;;;;;;;11.50;99.90;;;;;;5058278;28;19919;-82
2021/10/15 08:20:57;;;;;;;;;;;11.10;99.90;;;;;;5075335;28;19916;-84
2021/10/15 08:23:24;;;;;;;;;;;10.60;99.90;;;;;;5074630;28;19908;-82
2021/10/15 08:25:49;;;;;;;;;;;11.60;99.90;;;;;;5058430;28;19912;-82
2021/10/15 08:28:15;;;;;;;;;;;13.90;99.90;;;;;;5058840;28;19931;-82
2021/10/15 08:30:40;;;;;;;;;;;15.50;99.90;;;;;;5058742;28;19908;-83
2021/10/15 08:33:06;;;;;;;;;;;15.90;99.90;;;;;;5058521;28;20280;-82
2021/10/15 08:35:31;;;;;;;;;;;16.30;99.90;;;;;;5058158;28;19909;-83
2021/10/15 08:37:57;;;;;;;;;;;16.40;99.90;;;;;;5057984;28;19995;-84
2021/10/15 08:40:23;;;;;;;;;;;17.10;99.90;;;;;;5056592;28;19915;-84
2021/10/15 08:42:50;;;;;;;;;;;17.80;99.90;;;;;;5056624;28;19915;-85
2021/10/15 08:45:15;;;;;;;;;;;17.90;99.90;;;;;;5056497;28;19916;-84
2021/10/15 08:47:41;;;;;;;;;;;18.60;98.10;;;;;;5056815;28;20273;-82
2021/10/15 08:50:07;;;;;;;;;;;18.90;96.30;;;;;;5074175;28;19961;-83
2021/10/15 08:52:32;;;;;;;;;;;19.70;95.70;;;;;;5056632;28;19909;-83
2021/10/15 08:55:00;;;;;;;;;;;19.20;94.10;;;;;;5074685;28;20385;-83
2021/10/15 08:57:25;;;;;;;;;;;18.70;97.10;;;;;;5074728;28;19967;-83
2021/10/15 08:59:51;;;;;;;;;;;18.90;94.40;;;;;;5066289;28;19936;-83
2021/10/15 09:02:18;;;;;;;;;;;19.90;94.10;;;;;;5036507;28;19915;-83
2021/10/15 09:04:45;;;;;;;;;;;20.60;91.90;;;;;;5036399;28;19908;-83
2021/10/15 09:07:11;;;;;;;;;;;19.10;92.40;;;;;;5036575;28;19913;-83
2021/10/15 09:09:37;;;;;;;;;;;20.80;92.20;;;;;;5054784;28;19915;-84
2021/10/15 09:12:12;;;;;;;;;;;20.20;92.30;;;;;;5053249;28;19909;-82
2021/10/15 09:14:38;;;;;;;;;;;21.50;90.60;;;;;;5041665;28;19969;-84
2021/10/15 09:17:08;;;;;;;;;;;21.70;88.70;;;;;;5074493;28;19913;-84
2021/10/15 09:19:43;;;;;;;;;;;21.80;89.80;;;;;;5074681;28;20278;-84
2021/10/15 09:22:17;;;;;;;;;;;22.90;83.90;;;;;;5056387;28;20288;-83
2021/10/15 09:24:51;;;;;;;;;;;22.20;81.00;;;;;;5078114;28;19909;-83
2021/10/15 09:27:24;;;;;;;;;;;22.40;85.90;;;;;;5077818;28;19930;-82
2021/10/15 09:29:49;;;;;;;;;;;23.10;83.10;;;;;;5079860;28;19920;-83
2021/10/15 09:32:15;;;;;;;;;;;22.80;79.70;;;;;;5067691;28;19909;-84
2021/10/15 09:34:41;;;;;;;;;;;21.20;83.20;;;;;;5086599;28;19912;-83
2021/10/15 09:37:33;;;;;;;;;;;20.60;83.60;;;;;;5069906;28;19919;-84
2021/10/15 09:40:09;;;;;;;;;;;21.50;87.20;;;;;;5081056;28;19909;-84
2021/10/15 09:42:42;;;;;;;;;;;22.80;79.30;;;;;;5067577;28;20273;-84
2021/10/15 09:45:34;;;;;;;;;;;22.80;80.40;;;;;;5084859;28;19913;-84
2021/10/15 09:48:00;;;;;;;;;;;23.00;78.30;;;;;;5062994;28;19909;-84
2021/10/15 09:50:27;;;;;;;;;;;20.80;82.20;;;;;;5082873;28;19979;-84
2021/10/15 09:52:55;;;;;;;;;;;20.00;85.80;;;;;;5058594;28;19912;-84
2021/10/15 09:55:31;;;;;;;;;;;19.70;87.10;;;;;;5054717;28;19916;-84
2021/10/15 09:58:09;;;;;;;;;;;19.80;86.80;;;;;;5054606;28;20009;-84
2021/10/15 10:00:34;;;;;;;;;;;21.70;82.90;;;;;;5067557;28;19948;-84
2021/10/15 10:03:07;;;;;;;;;;;22.20;80.50;;;;;;5064732;28;19916;-83
2021/10/15 10:05:33;;;;;;;;;;;20.60;82.50;;;;;;5072825;28;19908;-85
2021/10/15 10:07:58;;;;;;;;;;;18.50;87.50;;;;;;5072721;28;19908;-85
2021/10/15 10:10:25;;;;;;;;;;;17.60;90.90;;;;;;5072703;28;20004;-84
2021/10/15 10:12:51;;;;;;;;;;;17.00;92.90;;;;;;5071121;28;20042;-84
2021/10/15 10:15:19;;;;;;;;;;;16.30;92.00;;;;;;5071464;28;19908;-84
2021/10/15 10:18:09;;;;;;;;;;;15.70;94.20;;;;;;5054383;28;20018;-84
2021/10/15 10:20:36;;;;;;;;;;;15.80;95.00;;;;;;5054476;28;19908;-84
2021/10/15 10:23:04;;;;;;;;;;;15.60;92.70;;;;;;5054400;28;19908;-83
2021/10/15 10:25:30;;;;;;;;;;;15.40;94.20;;;;;;5054459;28;19913;-84
2021/10/15 10:27:57;;;;;;;;;;;15.10;93.90;;;;;;5054400;28;19927;-84
2021/10/15 10:30:49;;;;;;;;;;;14.40;95.70;;;;;;5072998;28;19977;-85
2021/10/15 10:33:14;;;;;;;;;;;14.60;96.10;;;;;;5067951;28;19909;-84
2021/10/15 10:35:42;;;;;;;;;;;14.20;95.80;;;;;;5054271;28;20019;-84
2021/10/15 10:38:20;;;;;;;;;;;14.50;95.60;;;;;;5072145;28;19919;-84
2021/10/15 10:41:01;;;;;;;;;;;14.50;95.40;;;;;;5054409;28;19924;-85
2021/10/15 10:43:26;;;;;;;;;;;14.60;95.50;;;;;;5072114;28;19910;-84
2021/10/15 10:46:11;;;;;;;;;;;14.90;95.50;;;;;;5054210;28;20311;-85
2021/10/15 10:48:49;;;;;;;;;;;14.90;96.30;;;;;;5054388;28;19955;-85
2021/10/15 10:51:23;;;;;;;;;;;14.80;96.30;;;;;;5054291;28;19958;-84
2021/10/15 10:54:12;;;;;;;;;;;15.10;95.50;;;;;;5072111;28;19991;-84
2021/10/15 10:56:40;;;;;;;;;;;14.60;96.40;;;;;;5043318;28;19915;-86
2021/10/15 11:01:49;;;;;;;;;;;15.60;95.60;;;;;;5052446;28;19916;-84
2021/10/15 11:04:25;;;;;;;;;;;15.50;96.30;;;;;;5034268;28;20368;-86
2021/10/15 11:07:13;;;;;;;;;;;16.00;94.40;;;;;;5052287;28;19912;-85
2021/10/15 11:09:41;;;;;;;;;;;16.40;94.60;;;;;;5036881;28;19916;-84
2021/10/15 11:12:08;;;;;;;;;;;18.90;92.40;;;;;;5038061;28;19916;-86
2021/10/15 11:14:53;;;;;;;;;;;18.70;92.30;;;;;;5041855;28;20361;-85
2021/10/15 11:17:28;;;;;;;;;;;17.50;92.40;;;;;;5075669;28;20265;-84
2021/10/15 11:20:13;;;;;;;;;;;18.50;91.50;;;;;;5076235;28;19908;-84
2021/10/15 11:22:39;;;;;;;;;;;19.90;90.10;;;;;;5075403;28;19909;-84
2021/10/15 11:25:06;;;;;;;;;;;18.80;90.50;;;;;;5057667;28;20288;-84
2021/10/15 11:27:31;;;;;;;;;;;17.30;91.50;;;;;;5091669;28;19916;-83
2021/10/15 11:29:58;;;;;;;;;;;16.00;93.60;;;;;;5057901;28;19909;-88
2021/10/15 11:32:30;;;;;;;;;;;15.00;95.20;;;;;;5091490;28;19908;-86
2021/10/15 11:35:03;;;;;;;;;;;14.70;95.90;;;;;;5058043;28;19954;-86
2021/10/15 11:37:40;;;;;;;;;;;14.80;96.90;;;;;;5075437;28;19912;-86
2021/10/15 11:40:23;;;;;;;;;;;14.90;96.30;;;;;;5057758;28;19958;-85
2021/10/15 11:42:48;;;;;;;;;;;14.70;96.60;;;;;;5091290;28;19939;-85
2021/10/15 11:45:23;;;;;;;;;;;14.50;97.80;;;;;;5091388;28;19909;-86
2021/10/15 11:47:57;;;;;;;;;;;14.70;95.30;;;;;;5075951;28;19908;-85
2021/10/15 11:50:37;;;;;;;;;;;14.60;96.30;;;;;;5057786;28;19912;-85
2021/10/15 11:53:03;;;;;;;;;;;14.50;97.90;;;;;;5091557;28;19908;-85
2021/10/15 11:55:31;;;;;;;;;;;14.50;97.80;;;;;;5092415;28;20323;-85
2021/10/15 11:58:15;;;;;;;;;;;14.90;95.50;;;;;;5092818;28;19916;-85
2021/10/15 12:00:54;;;;;;;;;;;14.90;95.60;;;;;;5052717;28;19913;-84
2021/10/15 12:03:27;;;;;;;;;;;14.60;95.60;;;;;;5055736;28;19913;-86
2021/10/15 12:05:53;;;;;;;;;;;14.60;95.20;;;;;;5038253;28;20047;-85
2021/10/15 12:08:18;;;;;;;;;;;14.50;95.70;;;;;;5038661;28;19940;-88
2021/10/15 12:10:47;;;;;;;;;;;14.40;96.90;;;;;;5038964;28;20373;-85
2021/10/15 12:13:13;;;;;;;;;;;14.30;97.40;;;;;;5055821;28;20288;-85
2021/10/15 12:15:38;;;;;;;;;;;14.70;97.70;;;;;;5055658;28;19909;-86
2021/10/15 12:18:05;;;;;;;;;;;14.70;96.70;;;;;;5038264;28;20011;-85
2021/10/15 12:20:32;;;;;;;;;;;14.80;96.70;;;;;;5055314;28;19919;-85
2021/10/15 12:23:04;;;;;;;;;;;14.60;96.80;;;;;;5037822;28;19909;-86
2021/10/15 12:25:30;;;;;;;;;;;14.50;96.20;;;;;;5056177;28;19971;-85
2021/10/15 12:27:56;;;;;;;;;;;14.40;96.90;;;;;;5056122;28;19909;-85
2021/10/15 12:30:25;;;;;;;;;;;14.40;96.00;;;;;;5038490;28;19960;-86
2021/10/15 12:32:52;;;;;;;;;;;14.40;96.30;;;;;;5038158;28;19913;-84
2021/10/15 12:35:20;;;;;;;;;;;14.60;97.60;;;;;;5038261;28;20422;-85
2021/10/15 12:37:48;;;;;;;;;;;14.70;97.60;;;;;;5055951;28;19919;-85
2021/10/15 12:40:17;;;;;;;;;;;14.70;97.70;;;;;;5038257;28;19916;-87
2021/10/15 12:42:44;;;;;;;;;;;14.80;97.10;;;;;;5037412;28;20284;-85
2021/10/15 12:45:11;;;;;;;;;;;15.10;94.80;;;;;;5038061;28;19909;-86
2021/10/15 12:47:37;;;;;;;;;;;15.10;95.80;;;;;;5056237;28;19936;-85
2021/10/15 12:50:04;;;;;;;;;;;15.00;97.60;;;;;;5056019;28;20023;-85
2021/10/15 12:52:30;;;;;;;;;;;15.10;96.80;;;;;;5036599;28;19915;-84
2021/10/15 12:54:55;;;;;;;;;;;15.40;97.10;;;;;;5036769;28;19913;-84
2021/10/15 12:57:21;;;;;;;;;;;15.60;97.40;;;;;;5053676;28;19916;-85
2021/10/15 13:00:04;;;;;;;;;;;15.60;96.20;;;;;;5042226;28;20393;-85
2021/10/15 13:02:29;;;;;;;;;;;15.70;96.50;;;;;;5057077;28;19910;-82
2021/10/15 13:04:56;;;;;;;;;;;15.50;96.80;;;;;;5073913;28;20326;-85
2021/10/15 13:07:21;;;;;;;;;;;15.50;97.20;;;;;;5056763;28;19936;-84
2021/10/15 13:09:47;;;;;;;;;;;15.60;97.00;;;;;;5056526;28;19931;-86
2021/10/15 13:12:12;;;;;;;;;;;15.50;95.60;;;;;;5074377;28;19908;-85
2021/10/15 13:14:40;;;;;;;;;;;15.70;96.80;;;;;;5055678;28;20395;-84
2021/10/15 13:17:07;;;;;;;;;;;15.60;96.50;;;;;;5074143;28;19920;-85
2021/10/15 13:19:35;;;;;;;;;;;15.50;96.90;;;;;;5057754;28;19956;-85
2021/10/15 13:22:01;;;;;;;;;;;15.30;96.80;;;;;;5056128;28;19913;-84
2021/10/15 13:24:27;;;;;;;;;;;15.60;97.80;;;;;;5055802;28;19930;-84
2021/10/15 13:26:52;;;;;;;;;;;15.50;97.20;;;;;;5073703;28;19908;-86
2021/10/15 13:29:18;;;;;;;;;;;15.50;97.00;;;;;;5056314;28;19943;-85
2021/10/15 13:31:43;;;;;;;;;;;15.20;96.50;;;;;;5072266;28;20281;-85
2021/10/15 13:34:09;;;;;;;;;;;15.40;97.00;;;;;;5055572;28;19908;-87
2021/10/15 13:36:37;;;;;;;;;;;15.30;97.20;;;;;;5055906;28;19913;-85
2021/10/15 13:39:05;;;;;;;;;;;15.40;97.00;;;;;;5056021;28;20011;-84
2021/10/15 13:42:04;;;;;;;;;;;15.30;97.30;;;;;;5055719;28;19912;-87
2021/10/15 13:44:43;;;;;;;;;;;15.10;96.90;;;;;;5072272;28;19908;-85
2021/10/15 13:47:15;;;;;;;;;;;15.10;97.00;;;;;;5073796;28;19999;-85
2021/10/15 13:49:45;;;;;;;;;;;15.20;97.20;;;;;;5072462;28;19938;-85
2021/10/15 13:52:16;;;;;;;;;;;14.90;98.90;;;;;;5056103;28;19913;-86
2021/10/15 13:54:42;;;;;;;;;;;14.80;99.00;;;;;;5055906;28;19915;-85
2021/10/15 13:57:10;;;;;;;;;;;14.80;99.20;;;;;;5055832;28;19913;-84
2021/10/15 13:59:41;;;;;;;;;;;14.60;99.30;;;;;;5056681;28;20435;-85
2021/10/15 14:02:09;;;;;;;;;;;14.60;99.60;;;;;;5038374;28;19916;-84
2021/10/15 14:04:38;;;;;;;;;;;14.50;99.90;;;;;;5036156;28;19916;-86
2021/10/15 14:07:10;;;;;;;;;;;14.60;99.90;;;;;;5053618;28;19971;-85
2021/10/15 14:09:36;;;;;;;;;;;14.60;99.80;;;;;;5035209;28;19994;-87
2021/10/15 14:12:05;;;;;;;;;;;14.60;99.90;;;;;;5034967;28;19909;-85
2021/10/15 14:14:34;;;;;;;;;;;14.50;99.90;;;;;;5052630;28;20490;-86
2021/10/15 14:16:59;;;;;;;;;;;14.40;99.90;;;;;;5051735;28;20384;-87
2021/10/15 14:19:25;;;;;;;;;;;14.40;99.90;;;;;;5034857;28;19908;-86
2021/10/15 14:21:50;;;;;;;;;;;14.30;99.90;;;;;;5034788;28;19909;-86
2021/10/15 14:24:16;;;;;;;;;;;14.20;99.90;;;;;;5034424;28;19971;-85
2021/10/15 14:26:42;;;;;;;;;;;14.00;99.90;;;;;;5034875;28;19909;-88
2021/10/15 14:29:07;;;;;;;;;;;13.90;99.90;;;;;;5035158;28;19958;-86
2021/10/15 14:31:35;;;;;;;;;;;13.90;99.90;;;;;;5034956;28;19932;-82
2021/10/15 14:34:03;;;;;;;;;;;13.90;99.90;;;;;;5051076;28;19971;-84